Time;durP1;ratioP1;P1;durP2;ratioP2;P2;SDS_P1;SDS_P2;PMS_P1;PMS_P2;Temp;Humidity;BMP_temperature;BMP_pressure;BME280_temperature;BME280_humidity;BME280_pressure;Samples;Min_cycle;Max_cycle;Signal;HPM_P1;HPM_P2
2022/10/16 00:00:46;;;;;;;1.80;1.60;;;15.80;99.90;;;;;;5128047;27;20197;-69
2022/10/16 00:03:13;;;;;;;1.57;1.47;;;15.90;99.90;;;;;;5127738;27;20587;-69
2022/10/16 00:05:41;;;;;;;4.13;1.90;;;15.90;99.90;;;;;;5123827;27;20202;-69
2022/10/16 00:08:10;;;;;;;1.70;1.67;;;15.90;99.90;;;;;;5107751;28;20206;-68
2022/10/16 00:10:37;;;;;;;1.43;1.43;;;15.90;99.90;;;;;;5121559;28;20579;-67
2022/10/16 00:13:04;;;;;;;1.80;1.70;;;15.90;99.90;;;;;;5128232;27;20220;-67
2022/10/16 00:15:31;;;;;;;2.63;1.67;;;15.90;99.90;;;;;;5109882;27;20198;-68
2022/10/16 00:17:57;;;;;;;1.80;1.70;;;15.90;99.90;;;;;;5120515;28;20213;-68
2022/10/16 00:20:24;;;;;;;1.67;1.57;;;15.90;99.90;;;;;;5127874;27;20206;-68
2022/10/16 00:22:51;;;;;;;1.80;1.70;;;15.90;99.90;;;;;;5128171;27;20229;-68
2022/10/16 00:25:19;;;;;;;1.60;1.50;;;15.90;99.90;;;;;;5127530;27;20707;-68
2022/10/16 00:27:46;;;;;;;1.67;1.57;;;15.90;99.90;;;;;;5127842;27;20205;-68
2022/10/16 00:30:13;;;;;;;3.00;1.77;;;15.90;99.90;;;;;;5127767;27;20232;-68
2022/10/16 00:32:39;;;;;;;2.80;1.60;;;15.90;99.90;;;;;;5127634;27;20208;-68
2022/10/16 00:35:07;;;;;;;1.50;1.50;;;15.90;99.90;;;;;;5128114;27;20209;-68
2022/10/16 00:37:33;;;;;;;2.00;1.57;;;15.90;99.90;;;;;;5128005;27;20581;-68
2022/10/16 00:40:00;;;;;;;1.70;1.60;;;15.90;99.90;;;;;;5127566;27;20682;-67
2022/10/16 00:42:28;;;;;;;1.93;1.70;;;15.90;99.90;;;;;;5130049;27;20703;-67
2022/10/16 00:44:57;;;;;;;1.60;1.50;;;15.90;99.90;;;;;;5131413;27;20206;-68
2022/10/16 00:47:27;;;;;;;1.77;1.67;;;15.90;99.90;;;;;;5131650;27;20201;-68
2022/10/16 00:49:59;;;;;;;1.87;1.40;;;15.90;99.90;;;;;;5131594;27;20200;-68
2022/10/16 00:52:26;;;;;;;2.50;1.40;;;15.90;99.90;;;;;;5131558;27;20213;-68
2022/10/16 00:54:54;;;;;;;1.67;1.57;;;15.90;99.90;;;;;;5131206;27;20210;-67
2022/10/16 00:57:21;;;;;;;1.97;1.60;;;15.90;99.90;;;;;;5131235;27;20236;-68
2022/10/16 00:59:49;;;;;;;1.37;1.27;;;15.90;99.90;;;;;;5131389;27;20197;-68
2022/10/16 01:02:16;;;;;;;1.60;1.57;;;15.80;99.90;;;;;;5130492;27;20775;-70
2022/10/16 01:04:47;;;;;;;2.13;1.70;;;15.80;99.90;;;;;;5131245;27;20205;-68
2022/10/16 01:07:24;;;;;;;1.57;1.10;;;15.80;99.90;;;;;;5127118;27;20224;-68
2022/10/16 01:10:00;;;;;;;1.30;1.30;;;15.80;99.90;;;;;;5131312;27;20626;-68
2022/10/16 01:12:37;;;;;;;2.00;1.47;;;15.80;99.90;;;;;;5110331;28;20198;-68
2022/10/16 01:15:12;;;;;;;2.73;1.47;;;15.80;99.90;;;;;;5123929;27;20209;-68
2022/10/16 01:17:44;;;;;;;1.40;1.30;;;15.80;99.90;;;;;;5131092;27;20508;-68
2022/10/16 01:20:18;;;;;;;3.17;1.47;;;15.80;99.90;;;;;;5130646;27;20644;-68
2022/10/16 01:22:57;;;;;;;2.37;1.50;;;15.80;99.90;;;;;;5130519;27;20622;-68
2022/10/16 01:25:32;;;;;;;1.47;1.23;;;15.80;99.90;;;;;;5130478;27;20231;-68
2022/10/16 01:28:03;;;;;;;1.60;1.50;;;15.80;99.90;;;;;;5130395;27;20643;-68
2022/10/16 01:30:33;;;;;;;1.30;1.20;;;15.80;99.90;;;;;;5130612;27;20189;-68
2022/10/16 01:33:06;;;;;;;3.03;1.27;;;15.80;99.90;;;;;;5130770;27;20208;-68
2022/10/16 01:35:37;;;;;;;1.10;1.10;;;15.80;99.90;;;;;;5130703;27;20202;-68
2022/10/16 01:38:08;;;;;;;1.63;1.40;;;15.80;99.90;;;;;;5130563;27;20194;-68
2022/10/16 01:40:39;;;;;;;1.40;1.30;;;15.90;99.90;;;;;;5130359;27;20217;-68
2022/10/16 01:43:11;;;;;;;1.20;1.20;;;15.80;99.90;;;;;;5130059;27;20236;-68
2022/10/16 01:45:40;;;;;;;1.40;1.30;;;15.80;99.90;;;;;;5130154;27;20572;-70
2022/10/16 01:48:09;;;;;;;1.30;1.20;;;15.80;99.90;;;;;;5129937;27;20223;-69
2022/10/16 01:50:40;;;;;;;1.77;1.50;;;15.80;99.90;;;;;;5109864;28;20262;-69
2022/10/16 01:53:11;;;;;;;1.30;1.30;;;15.80;99.90;;;;;;5108808;28;20251;-69
2022/10/16 01:55:44;;;;;;;1.17;1.17;;;15.80;99.90;;;;;;5123688;27;20194;-69
2022/10/16 01:58:14;;;;;;;1.47;1.37;;;15.80;99.90;;;;;;5129696;27;20665;-69
2022/10/16 02:00:45;;;;;;;1.30;1.30;;;15.70;99.90;;;;;;5130440;27;20205;-69
2022/10/16 02:03:15;;;;;;;1.27;1.23;;;15.80;99.90;;;;;;5129985;27;20225;-69
2022/10/16 02:05:46;;;;;;;2.67;1.30;;;15.70;99.90;;;;;;5130140;27;20202;-69
2022/10/16 02:08:14;;;;;;;1.30;1.30;;;15.70;99.90;;;;;;5127880;27;20284;-70
2022/10/16 02:10:42;;;;;;;1.23;1.00;;;15.70;99.90;;;;;;5130029;27;20224;-71
2022/10/16 02:13:14;;;;;;;1.53;1.30;;;15.70;99.90;;;;;;5130411;27;20209;-70
2022/10/16 02:15:41;;;;;;;1.53;1.43;;;15.70;99.90;;;;;;5129917;27;20546;-70
2022/10/16 02:18:09;;;;;;;1.83;1.13;;;15.70;99.90;;;;;;5129492;27;20202;-70
2022/10/16 02:20:45;;;;;;;1.43;1.33;;;15.70;99.90;;;;;;5129935;27;20237;-71
2022/10/16 02:23:18;;;;;;;1.20;1.20;;;15.70;99.90;;;;;;5129768;27;20225;-70
2022/10/16 02:25:47;;;;;;;1.10;1.10;;;15.70;99.90;;;;;;5129794;27;20229;-70
2022/10/16 02:28:18;;;;;;;1.97;1.40;;;15.80;99.90;;;;;;5129418;27;20205;-69
2022/10/16 02:30:49;;;;;;;1.57;1.27;;;15.80;99.90;;;;;;5129401;27;20193;-69
2022/10/16 02:33:17;;;;;;;1.40;1.30;;;15.70;99.90;;;;;;5129885;27;20189;-69
2022/10/16 02:35:46;;;;;;;1.27;1.10;;;15.70;99.90;;;;;;5114103;27;20202;-69
2022/10/16 02:38:13;;;;;;;1.40;1.33;;;15.70;99.90;;;;;;5108610;27;20695;-69
2022/10/16 02:40:40;;;;;;;3.17;1.20;;;15.70;99.90;;;;;;5108859;28;20209;-69
2022/10/16 02:43:08;;;;;;;1.43;1.30;;;15.70;99.90;;;;;;5119315;27;20236;-69
2022/10/16 02:45:36;;;;;;;1.77;1.40;;;15.70;99.90;;;;;;5129482;27;20208;-69
2022/10/16 02:48:04;;;;;;;1.30;1.30;;;15.70;99.90;;;;;;5129483;27;20207;-69
2022/10/16 02:50:30;;;;;;;1.50;1.40;;;15.70;99.90;;;;;;5108590;28;20217;-69
2022/10/16 02:52:57;;;;;;;2.03;1.30;;;15.70;99.90;;;;;;5121425;27;20586;-69
2022/10/16 02:55:24;;;;;;;1.30;1.30;;;15.70;99.90;;;;;;5123013;27;20220;-71
2022/10/16 02:57:51;;;;;;;1.20;1.20;;;15.70;99.90;;;;;;5129105;27;20213;-71
2022/10/16 03:00:18;;;;;;;1.63;1.53;;;15.60;99.90;;;;;;5128838;27;20389;-69
2022/10/16 03:02:46;;;;;;;1.50;1.27;;;15.60;99.90;;;;;;5128652;27;20233;-69
2022/10/16 03:05:13;;;;;;;2.30;1.20;;;15.60;99.90;;;;;;5128843;27;20259;-70
2022/10/16 03:07:40;;;;;;;2.87;1.27;;;15.50;99.90;;;;;;5128994;27;20201;-70
2022/10/16 03:10:08;;;;;;;1.30;1.20;;;15.50;99.90;;;;;;5128661;27;20213;-70
2022/10/16 03:12:35;;;;;;;1.83;1.20;;;15.50;99.90;;;;;;5129091;27;20236;-70
2022/10/16 03:15:02;;;;;;;1.30;1.23;;;15.50;99.90;;;;;;5128912;27;20205;-70
2022/10/16 03:17:28;;;;;;;1.70;1.30;;;15.50;99.90;;;;;;5128815;27;20227;-70
2022/10/16 03:19:56;;;;;;;1.50;1.40;;;15.50;99.90;;;;;;5128524;27;20558;-70
2022/10/16 03:22:23;;;;;;;1.60;1.50;;;15.50;99.90;;;;;;5128426;27;20205;-70
2022/10/16 03:24:50;;;;;;;2.63;1.50;;;15.50;99.90;;;;;;5128693;27;20228;-70
2022/10/16 03:27:17;;;;;;;1.37;1.27;;;15.40;99.90;;;;;;5128493;27;20205;-70
2022/10/16 03:29:43;;;;;;;3.13;1.50;;;15.40;99.90;;;;;;5128434;27;20201;-70
2022/10/16 03:32:10;;;;;;;1.50;1.40;;;15.40;99.90;;;;;;5128502;27;20198;-70
2022/10/16 03:34:37;;;;;;;1.63;1.40;;;15.40;99.90;;;;;;5128707;27;20206;-69
2022/10/16 03:37:05;;;;;;;2.70;1.40;;;15.40;99.90;;;;;;5128589;27;20240;-69
2022/10/16 03:39:32;;;;;;;1.63;1.53;;;15.40;99.90;;;;;;5128577;27;20202;-69
2022/10/16 03:41:58;;;;;;;1.20;1.20;;;15.40;99.90;;;;;;5127976;27;20686;-69
2022/10/16 03:44:25;;;;;;;1.50;1.37;;;15.40;99.90;;;;;;5128353;27;20244;-69
2022/10/16 03:46:52;;;;;;;1.70;1.20;;;15.40;99.90;;;;;;5128400;27;20208;-69
2022/10/16 03:49:18;;;;;;;1.50;1.40;;;15.50;99.90;;;;;;5128206;27;20595;-70
2022/10/16 03:51:45;;;;;;;4.70;1.50;;;15.50;99.90;;;;;;5122272;27;20217;-70
2022/10/16 03:54:13;;;;;;;1.67;1.57;;;15.50;99.90;;;;;;5109639;28;20216;-70
2022/10/16 03:56:40;;;;;;;1.60;1.50;;;15.50;99.90;;;;;;5127781;27;20198;-70
2022/10/16 03:59:07;;;;;;;1.93;1.20;;;15.50;99.90;;;;;;5127777;27;20687;-70
2022/10/16 04:01:34;;;;;;;2.07;1.50;;;15.50;99.90;;;;;;5128016;27;20229;-70
2022/10/16 04:04:00;;;;;;;1.60;1.50;;;15.50;99.90;;;;;;5127458;27;20229;-70
2022/10/16 04:06:27;;;;;;;2.47;1.43;;;15.50;99.90;;;;;;5127963;27;20209;-70
2022/10/16 04:08:54;;;;;;;1.30;1.20;;;15.50;99.90;;;;;;5128275;27;20231;-70
2022/10/16 04:11:22;;;;;;;1.17;1.17;;;15.50;99.90;;;;;;5127316;27;20660;-69
2022/10/16 04:13:49;;;;;;;1.50;1.43;;;15.50;99.90;;;;;;5128260;27;20209;-69
2022/10/16 04:16:15;;;;;;;2.47;1.50;;;15.50;99.90;;;;;;5129426;27;20201;-69
2022/10/16 04:18:42;;;;;;;1.83;1.73;;;15.50;99.90;;;;;;5132166;27;20194;-69
2022/10/16 04:21:09;;;;;;;1.47;1.37;;;15.50;99.90;;;;;;5132145;27;20224;-70
2022/10/16 04:23:36;;;;;;;1.47;1.43;;;15.50;99.90;;;;;;5132193;27;20689;-69
2022/10/16 04:26:03;;;;;;;1.90;1.37;;;15.50;99.90;;;;;;5131614;27;20774;-69
2022/10/16 04:28:31;;;;;;;1.43;1.33;;;15.50;99.90;;;;;;5131547;27;20566;-69
2022/10/16 04:30:57;;;;;;;3.33;1.40;;;15.50;99.90;;;;;;5131990;27;20682;-70
2022/10/16 04:33:24;;;;;;;1.17;1.13;;;15.50;99.90;;;;;;5131979;27;20213;-69
2022/10/16 04:35:57;;;;;;;1.70;1.57;;;15.50;99.90;;;;;;5131882;27;20208;-71
2022/10/16 04:38:24;;;;;;;1.40;1.40;;;15.50;99.90;;;;;;5132132;27;20194;-69
2022/10/16 04:40:51;;;;;;;1.37;1.37;;;15.50;99.90;;;;;;5131710;27;20220;-69
2022/10/16 04:43:18;;;;;;;1.53;1.43;;;15.40;99.90;;;;;;5131525;27;20252;-69
2022/10/16 04:45:46;;;;;;;1.50;1.40;;;15.40;99.90;;;;;;5131467;27;20209;-69
2022/10/16 04:48:13;;;;;;;3.77;1.50;;;15.40;99.90;;;;;;5130475;27;20216;-69
2022/10/16 04:50:39;;;;;;;1.60;1.50;;;15.40;99.90;;;;;;5114932;27;20193;-69
2022/10/16 04:53:07;;;;;;;4.20;1.53;;;15.40;99.90;;;;;;5131494;27;20213;-69
2022/10/16 04:55:33;;;;;;;1.67;1.23;;;15.40;99.90;;;;;;5130761;27;20200;-69
2022/10/16 04:58:00;;;;;;;1.47;1.37;;;15.40;99.90;;;;;;5131149;27;20202;-69
2022/10/16 05:00:27;;;;;;;1.90;1.57;;;15.40;99.90;;;;;;5131258;27;20198;-69
2022/10/16 05:02:55;;;;;;;1.30;1.30;;;15.40;99.90;;;;;;5131040;27;20233;-70
2022/10/16 05:05:22;;;;;;;2.63;1.43;;;15.40;99.90;;;;;;5131086;27;20194;-70
2022/10/16 05:07:50;;;;;;;1.60;1.50;;;15.40;99.90;;;;;;5131336;27;20296;-70
2022/10/16 05:10:16;;;;;;;1.60;1.50;;;15.30;99.90;;;;;;5130749;27;20258;-69
2022/10/16 05:12:43;;;;;;;1.83;1.60;;;15.30;99.90;;;;;;5131287;27;20197;-69
2022/10/16 05:15:11;;;;;;;1.50;1.40;;;15.40;99.90;;;;;;5130944;27;20208;-69
2022/10/16 05:17:37;;;;;;;3.97;1.40;;;15.40;99.90;;;;;;5131095;27;20299;-69
2022/10/16 05:20:07;;;;;;;1.77;1.67;;;15.30;99.90;;;;;;5131158;27;20469;-69
2022/10/16 05:22:33;;;;;;;1.53;1.40;;;15.40;99.90;;;;;;5117417;27;20213;-70
2022/10/16 05:25:00;;;;;;;1.43;1.33;;;15.40;99.90;;;;;;5118778;27;20237;-70
2022/10/16 05:27:27;;;;;;;1.90;1.80;;;15.30;99.90;;;;;;5129207;27;20208;-69
2022/10/16 05:29:54;;;;;;;1.73;1.30;;;15.30;99.90;;;;;;5130886;27;20537;-70
2022/10/16 05:32:20;;;;;;;1.47;1.37;;;15.30;99.90;;;;;;5130402;27;20197;-69
2022/10/16 05:34:47;;;;;;;3.27;1.50;;;15.40;99.90;;;;;;5130216;27;20201;-69
2022/10/16 05:37:15;;;;;;;1.80;1.40;;;15.40;99.90;;;;;;5130557;27;20235;-70
2022/10/16 05:39:42;;;;;;;1.80;1.43;;;15.40;99.90;;;;;;5130713;27;20503;-70
2022/10/16 05:42:09;;;;;;;2.03;1.93;;;15.40;99.90;;;;;;5123091;27;20203;-70
2022/10/16 05:44:35;;;;;;;1.40;1.40;;;15.40;99.90;;;;;;5125756;27;20229;-70
2022/10/16 05:47:02;;;;;;;1.30;1.30;;;15.40;99.90;;;;;;5124974;27;20688;-70
2022/10/16 05:49:29;;;;;;;2.00;1.60;;;15.40;99.90;;;;;;5109804;27;20549;-70
2022/10/16 05:51:56;;;;;;;1.80;1.70;;;15.40;99.90;;;;;;5110770;27;20213;-70
2022/10/16 05:54:24;;;;;;;2.23;1.37;;;15.40;99.90;;;;;;5109902;28;20209;-70
2022/10/16 05:56:50;;;;;;;2.60;1.50;;;15.40;99.90;;;;;;5110387;27;20228;-70
2022/10/16 05:59:17;;;;;;;2.30;1.60;;;15.40;99.90;;;;;;5130273;27;20212;-70
2022/10/16 06:01:44;;;;;;;1.20;1.20;;;15.40;99.90;;;;;;5130171;27;20236;-70
2022/10/16 06:04:11;;;;;;;1.37;1.27;;;15.40;99.90;;;;;;5129810;27;20810;-70
2022/10/16 06:06:38;;;;;;;2.20;1.20;;;15.40;99.90;;;;;;5130369;27;20224;-70
2022/10/16 06:09:05;;;;;;;1.40;1.20;;;15.40;99.90;;;;;;5129793;27;20868;-70
2022/10/16 06:11:34;;;;;;;1.17;1.17;;;15.40;99.90;;;;;;5130028;27;20205;-70
2022/10/16 06:14:06;;;;;;;1.20;1.20;;;15.40;99.90;;;;;;5129905;27;20205;-70
2022/10/16 06:16:33;;;;;;;1.50;1.40;;;15.40;99.90;;;;;;5130014;27;20284;-70
2022/10/16 06:19:00;;;;;;;2.17;1.47;;;15.40;99.90;;;;;;5129997;27;20216;-70
2022/10/16 06:21:28;;;;;;;1.33;1.17;;;15.40;99.90;;;;;;5125141;27;20198;-69
2022/10/16 06:23:56;;;;;;;1.50;1.27;;;15.50;99.90;;;;;;5129994;27;20237;-69
2022/10/16 06:26:24;;;;;;;1.30;1.30;;;15.40;99.90;;;;;;5129069;27;20668;-70
2022/10/16 06:28:54;;;;;;;1.67;1.20;;;15.50;99.90;;;;;;5129954;27;20208;-70
2022/10/16 06:31:21;;;;;;;2.83;1.30;;;15.50;99.90;;;;;;5129494;27;20197;-70
2022/10/16 06:33:52;;;;;;;4.53;1.30;;;15.50;99.90;;;;;;5129699;27;20213;-70
2022/10/16 06:36:18;;;;;;;2.53;1.60;;;15.50;99.90;;;;;;5129602;27;20217;-68
2022/10/16 06:38:45;;;;;;;2.07;1.33;;;15.50;99.90;;;;;;5129322;27;20416;-69
2022/10/16 06:41:14;;;;;;;2.13;1.33;;;15.50;99.90;;;;;;5109624;27;20221;-69
2022/10/16 06:43:41;;;;;;;2.83;1.50;;;15.50;99.90;;;;;;5114596;27;20290;-69
2022/10/16 06:46:12;;;;;;;1.10;1.10;;;15.50;99.90;;;;;;5108656;28;20691;-69
2022/10/16 06:48:39;;;;;;;1.60;1.50;;;15.50;99.90;;;;;;5108557;28;20668;-69
2022/10/16 06:51:09;;;;;;;1.50;1.50;;;15.50;99.90;;;;;;5109276;28;20209;-69
2022/10/16 06:53:37;;;;;;;1.57;1.47;;;15.50;99.90;;;;;;5129315;27;20202;-69
2022/10/16 06:56:11;;;;;;;1.80;1.70;;;15.50;99.90;;;;;;5128981;27;20208;-69
2022/10/16 06:58:38;;;;;;;1.70;1.60;;;15.50;99.90;;;;;;5129182;27;20216;-69
2022/10/16 07:01:05;;;;;;;1.50;1.50;;;15.60;99.90;;;;;;5128791;27;20711;-69
2022/10/16 07:03:33;;;;;;;1.50;1.40;;;15.60;99.90;;;;;;5129069;27;20205;-70
2022/10/16 07:06:04;;;;;;;1.50;1.40;;;15.60;99.90;;;;;;5129008;27;20220;-70
2022/10/16 07:08:36;;;;;;;1.50;1.50;;;15.70;99.90;;;;;;5128217;27;20201;-70
2022/10/16 07:11:04;;;;;;;4.10;1.50;;;15.70;99.90;;;;;;5128262;27;20193;-70
2022/10/16 07:13:34;;;;;;;2.87;1.77;;;15.70;99.90;;;;;;5128828;27;20209;-70
2022/10/16 07:16:05;;;;;;;1.70;1.60;;;15.70;99.90;;;;;;5128531;27;20209;-70
2022/10/16 07:18:33;;;;;;;1.30;1.30;;;15.70;99.90;;;;;;5128758;27;20217;-70
2022/10/16 07:21:05;;;;;;;1.60;1.50;;;15.70;99.90;;;;;;5128076;27;20221;-69
2022/10/16 07:23:32;;;;;;;1.40;1.30;;;15.80;99.90;;;;;;5128081;27;20186;-69
2022/10/16 07:25:58;;;;;;;1.63;1.50;;;15.80;99.90;;;;;;5128149;27;20221;-69
2022/10/16 07:28:25;;;;;;;1.73;1.50;;;15.80;99.90;;;;;;5128236;27;20193;-68
2022/10/16 07:30:52;;;;;;;1.57;1.47;;;15.80;99.90;;;;;;5128360;27;20201;-68
2022/10/16 07:33:19;;;;;;;1.53;1.43;;;15.80;99.90;;;;;;5128291;27;20204;-69
2022/10/16 07:35:51;;;;;;;2.20;1.40;;;15.80;99.90;;;;;;5110223;27;20213;-68
2022/10/16 07:38:18;;;;;;;1.37;1.20;;;15.90;99.90;;;;;;5125832;27;20221;-68
2022/10/16 07:40:45;;;;;;;1.57;1.50;;;15.90;99.90;;;;;;5111622;27;20221;-69
2022/10/16 07:43:12;;;;;;;1.50;1.40;;;15.90;99.90;;;;;;5107802;28;20221;-70
2022/10/16 07:45:47;;;;;;;1.63;1.53;;;15.90;99.90;;;;;;5106643;27;20256;-70
2022/10/16 07:48:13;;;;;;;1.80;1.70;;;15.90;99.90;;;;;;5105635;28;20193;-70
2022/10/16 07:50:40;;;;;;;3.60;1.43;;;15.90;99.90;;;;;;5123589;27;20194;-68
2022/10/16 07:53:09;;;;;;;2.70;1.37;;;15.90;99.90;;;;;;5130479;27;20220;-68
2022/10/16 07:55:36;;;;;;;1.23;1.20;;;15.90;99.90;;;;;;5130525;27;20557;-68
2022/10/16 07:58:02;;;;;;;2.57;1.40;;;15.90;99.90;;;;;;5130120;27;20224;-68
2022/10/16 08:00:29;;;;;;;2.20;1.33;;;15.90;99.90;;;;;;5129435;27;20668;-68
2022/10/16 08:02:59;;;;;;;1.30;1.30;;;15.90;99.90;;;;;;5130063;27;20196;-68
2022/10/16 08:05:26;;;;;;;1.30;1.30;;;15.90;99.90;;;;;;5130017;27;20228;-69
2022/10/16 08:07:53;;;;;;;1.20;1.20;;;15.90;99.90;;;;;;5130208;27;20201;-68
2022/10/16 08:10:23;;;;;;;1.23;1.23;;;15.90;99.90;;;;;;5130238;27;20646;-68
2022/10/16 08:12:49;;;;;;;4.80;1.43;;;16.00;99.90;;;;;;5130642;27;20220;-68
2022/10/16 08:15:16;;;;;;;3.70;1.60;;;16.00;99.90;;;;;;5130337;27;20565;-68
2022/10/16 08:17:43;;;;;;;1.20;1.10;;;16.00;99.90;;;;;;5130659;27;20232;-69
2022/10/16 08:20:11;;;;;;;1.97;1.53;;;16.10;99.90;;;;;;5130473;27;20204;-68
2022/10/16 08:22:38;;;;;;;1.57;1.47;;;16.10;99.90;;;;;;5130631;27;20209;-69
2022/10/16 08:25:05;;;;;;;1.20;1.20;;;16.10;99.90;;;;;;5129577;27;20233;-68
2022/10/16 08:27:34;;;;;;;1.30;1.20;;;16.10;99.90;;;;;;5129227;27;20201;-68
2022/10/16 08:30:01;;;;;;;1.00;1.00;;;16.10;99.90;;;;;;5129361;27;20205;-68
2022/10/16 08:32:27;;;;;;;2.03;1.23;;;16.10;99.90;;;;;;5126451;27;20205;-68
2022/10/16 08:34:54;;;;;;;1.13;1.13;;;16.10;99.90;;;;;;5121744;27;20202;-68
2022/10/16 08:37:21;;;;;;;1.37;1.03;;;16.10;99.90;;;;;;5109464;27;20206;-69
2022/10/16 08:39:47;;;;;;;1.67;1.27;;;16.10;99.90;;;;;;5129211;27;20559;-68
2022/10/16 08:42:33;;;;;;;1.17;1.10;;;16.10;99.90;;;;;;5129168;27;20197;-68
2022/10/16 08:45:13;;;;;;;1.30;1.17;;;16.20;99.90;;;;;;5129602;27;20224;-69
2022/10/16 08:47:48;;;;;;;1.27;1.03;;;16.20;99.90;;;;;;5128929;27;20219;-68
2022/10/16 08:50:19;;;;;;;1.20;1.10;;;16.30;99.90;;;;;;5129281;27;20187;-68
2022/10/16 08:52:46;;;;;;;1.27;0.93;;;16.30;99.90;;;;;;5129572;27;20202;-68
2022/10/16 08:55:32;;;;;;;1.43;1.33;;;16.30;99.90;;;;;;5128750;27;20212;-68
2022/10/16 08:57:59;;;;;;;13.60;12.27;;;16.30;99.90;;;;;;5129094;27;20194;-69
2022/10/16 09:00:27;;;;;;;2.37;2.27;;;16.40;99.90;;;;;;5129093;27;20400;-68
2022/10/16 09:03:04;;;;;;;1.57;1.30;;;16.50;99.90;;;;;;5129228;27;20241;-69
2022/10/16 09:05:47;;;;;;;1.87;1.03;;;16.60;99.90;;;;;;5129350;27;20213;-69
2022/10/16 09:08:23;;;;;;;2.20;1.30;;;16.70;99.90;;;;;;5128912;27;20189;-69
2022/10/16 09:11:00;;;;;;;1.10;1.10;;;16.70;99.90;;;;;;5128915;27;20205;-71
2022/10/16 09:13:30;;;;;;;1.17;1.13;;;16.90;99.90;;;;;;5129130;27;20528;-69
2022/10/16 09:16:06;;;;;;;1.20;1.07;;;17.00;99.90;;;;;;5128605;27;20577;-69
2022/10/16 09:18:40;;;;;;;0.97;0.97;;;17.20;99.90;;;;;;5116374;27;20206;-68
2022/10/16 09:21:15;;;;;;;0.77;0.77;;;17.20;99.90;;;;;;5107166;27;20220;-68
2022/10/16 09:23:41;;;;;;;1.73;0.90;;;17.20;99.90;;;;;;5127707;27;20280;-69
2022/10/16 09:26:13;;;;;;;1.07;1.00;;;17.20;99.90;;;;;;5126388;27;20658;-68
2022/10/16 09:28:40;;;;;;;1.60;1.00;;;17.30;99.90;;;;;;5124967;27;20371;-69
2022/10/16 09:31:16;;;;;;;1.00;0.90;;;17.30;99.90;;;;;;5126922;27;20197;-71
2022/10/16 09:33:43;;;;;;;0.80;0.80;;;17.40;99.90;;;;;;5127353;27;20213;-67
2022/10/16 09:36:11;;;;;;;0.93;0.93;;;17.40;99.90;;;;;;5123618;27;20205;-70
2022/10/16 09:38:38;;;;;;;0.90;0.90;;;17.40;99.90;;;;;;5107604;28;20679;-68
2022/10/16 09:41:17;;;;;;;1.90;0.80;;;17.40;99.90;;;;;;5107902;28;20203;-68
2022/10/16 09:43:49;;;;;;;1.90;1.10;;;17.40;99.90;;;;;;5107874;27;20205;-69
2022/10/16 09:46:27;;;;;;;3.33;1.03;;;17.50;99.90;;;;;;5127718;27;20671;-68
2022/10/16 09:48:57;;;;;;;1.33;1.00;;;17.40;99.90;;;;;;5125135;27;20250;-68
2022/10/16 09:51:26;;;;;;;1.63;1.10;;;17.50;99.90;;;;;;5126938;27;20209;-68
2022/10/16 09:53:57;;;;;;;1.00;1.00;;;17.50;99.90;;;;;;5123787;27;20209;-68
2022/10/16 09:56:25;;;;;;;2.83;1.20;;;17.60;99.90;;;;;;5127737;27;20229;-68
2022/10/16 09:58:53;;;;;;;0.83;0.83;;;17.70;99.90;;;;;;5127915;27;20206;-68
2022/10/16 10:01:21;;;;;;;1.10;1.07;;;17.80;99.90;;;;;;5127527;27;20229;-68
2022/10/16 10:03:52;;;;;;;2.10;1.03;;;18.00;99.90;;;;;;5127282;27;20675;-68
2022/10/16 10:06:24;;;;;;;0.93;0.93;;;18.10;99.90;;;;;;5127520;27;20221;-68
2022/10/16 10:08:57;;;;;;;1.73;1.00;;;18.10;99.90;;;;;;5125615;27;20198;-68
2022/10/16 10:11:42;;;;;;;2.20;0.90;;;18.10;99.90;;;;;;5127323;27;20213;-68
2022/10/16 10:14:17;;;;;;;2.07;1.00;;;18.10;99.90;;;;;;5127162;27;20726;-68
2022/10/16 10:16:44;;;;;;;1.87;1.10;;;18.00;99.90;;;;;;5127695;27;20544;-69
2022/10/16 10:19:16;;;;;;;2.27;1.17;;;18.10;99.90;;;;;;5127144;27;20209;-68
2022/10/16 10:21:43;;;;;;;1.07;0.80;;;18.20;99.90;;;;;;5127648;27;20226;-68
2022/10/16 10:24:12;;;;;;;1.93;1.10;;;18.20;99.90;;;;;;5127781;27;20222;-68
2022/10/16 10:26:41;;;;;;;1.33;1.10;;;18.20;99.90;;;;;;5126970;27;20237;-72
2022/10/16 10:29:18;;;;;;;1.70;0.87;;;18.10;99.90;;;;;;5117448;27;20210;-68
2022/10/16 10:31:50;;;;;;;3.20;0.90;;;18.10;99.90;;;;;;5127049;27;20194;-68
2022/10/16 10:34:31;;;;;;;1.80;1.20;;;18.10;99.90;;;;;;5126494;27;20920;-67
2022/10/16 10:37:03;;;;;;;2.93;1.37;;;18.10;99.90;;;;;;5127054;27;20220;-68
2022/10/16 10:39:37;;;;;;;1.27;0.83;;;18.20;99.90;;;;;;5126588;27;20193;-67
2022/10/16 10:42:14;;;;;;;2.80;1.00;;;18.30;99.90;;;;;;5126351;27;20193;-68
2022/10/16 10:45:12;;;;;;;0.80;0.70;;;18.40;99.90;;;;;;5126291;27;20668;-68
2022/10/16 10:47:48;;;;;;;1.10;0.90;;;18.50;99.90;;;;;;5126252;27;20209;-68
2022/10/16 10:50:25;;;;;;;1.43;0.83;;;18.70;99.90;;;;;;5126897;27;20193;-68
2022/10/16 10:53:03;;;;;;;1.90;0.93;;;18.90;99.90;;;;;;5126845;27;20220;-68
2022/10/16 10:55:39;;;;;;;5.63;0.80;;;19.00;99.90;;;;;;5106116;28;20194;-68
2022/10/16 10:58:39;;;;;;;0.83;0.83;;;19.20;99.90;;;;;;5105919;28;20560;-68
2022/10/16 11:01:11;;;;;;;1.80;0.80;;;19.40;99.90;;;;;;5106008;28;20252;-68
2022/10/16 11:03:58;;;;;;;1.13;0.70;;;19.70;99.90;;;;;;5121468;27;20308;-68
2022/10/16 11:06:31;;;;;;;0.70;0.70;;;19.70;99.90;;;;;;5126318;27;20228;-68
2022/10/16 11:09:08;;;;;;;1.70;1.60;;;19.60;99.90;;;;;;5126402;27;20201;-68
2022/10/16 11:11:41;;;;;;;2.37;2.27;;;19.50;99.90;;;;;;5125697;27;20200;-68
2022/10/16 11:14:15;;;;;;;0.87;0.87;;;19.40;99.90;;;;;;5126327;27;20196;-68
2022/10/16 11:16:46;;;;;;;1.53;1.43;;;19.40;99.90;;;;;;5127326;27;20224;-68
2022/10/16 11:19:18;;;;;;;1.83;0.70;;;19.40;99.90;;;;;;5117360;27;20212;-68
2022/10/16 11:21:51;;;;;;;0.97;0.50;;;19.30;99.90;;;;;;5122022;27;20208;-68
2022/10/16 11:24:23;;;;;;;0.60;0.60;;;19.20;99.90;;;;;;5126291;27;20708;-68
2022/10/16 11:26:53;;;;;;;1.33;0.50;;;19.20;99.90;;;;;;5125965;27;20216;-68
2022/10/16 11:29:26;;;;;;;0.57;0.50;;;19.10;99.90;;;;;;5123169;27;20213;-68
2022/10/16 11:31:58;;;;;;;1.17;0.47;;;19.10;99.90;;;;;;5126516;27;20197;-68
2022/10/16 11:34:30;;;;;;;2.07;0.60;;;19.00;99.90;;;;;;5126168;27;20193;-68
2022/10/16 11:37:06;;;;;;;0.60;0.60;;;19.00;99.90;;;;;;5124726;27;20201;-68
2022/10/16 11:39:34;;;;;;;3.10;0.60;;;19.00;99.90;;;;;;5126195;27;20208;-68
2022/10/16 11:42:05;;;;;;;1.77;0.60;;;19.10;99.90;;;;;;5126188;27;20212;-68
2022/10/16 11:44:44;;;;;;;0.73;0.63;;;19.30;99.90;;;;;;5126546;27;20201;-68
2022/10/16 11:47:25;;;;;;;0.60;0.60;;;19.50;99.90;;;;;;5105558;28;20244;-68
2022/10/16 11:49:58;;;;;;;0.60;0.60;;;19.60;99.90;;;;;;5120453;28;20201;-68
2022/10/16 11:52:34;;;;;;;0.60;0.60;;;19.80;99.90;;;;;;5114394;27;20208;-68
2022/10/16 11:55:07;;;;;;;2.20;0.40;;;19.90;99.90;;;;;;5105620;28;20251;-68
2022/10/16 11:57:39;;;;;;;5.77;0.73;;;20.00;99.90;;;;;;5106150;28;20200;-68
2022/10/16 12:00:11;;;;;;;1.13;0.70;;;20.30;99.90;;;;;;5113979;28;20208;-68
2022/10/16 12:02:51;;;;;;;0.97;0.83;;;20.30;99.90;;;;;;5125794;27;20604;-68
2022/10/16 12:05:29;;;;;;;0.60;0.60;;;20.30;99.90;;;;;;5108406;28;20286;-68
2022/10/16 12:08:07;;;;;;;2.43;0.50;;;20.20;99.90;;;;;;5126189;27;20827;-68
2022/10/16 12:10:36;;;;;;;0.60;0.60;;;20.30;99.90;;;;;;5125941;27;20659;-68
2022/10/16 12:13:04;;;;;;;0.50;0.50;;;20.40;99.90;;;;;;5126247;27;20250;-68
2022/10/16 12:15:33;;;;;;;0.67;0.67;;;20.50;99.90;;;;;;5125934;27;20194;-68
2022/10/16 12:18:00;;;;;;;0.68;0.50;;;20.70;99.90;;;;;;5126023;27;20205;-68
2022/10/16 12:20:32;;;;;;;0.93;0.52;;;20.90;99.90;;;;;;5126007;27;20816;-68
2022/10/16 12:23:02;;;;;;;1.80;0.57;;;21.00;99.90;;;;;;5109284;27;20727;-68
2022/10/16 12:25:32;;;;;;;1.47;0.70;;;21.00;99.90;;;;;;5104985;28;20264;-68
2022/10/16 12:28:01;;;;;;;0.93;0.50;;;21.20;99.90;;;;;;5117541;28;20918;-68
2022/10/16 12:30:31;;;;;;;1.75;0.77;;;21.40;99.90;;;;;;5125527;27;20664;-68
2022/10/16 12:33:01;;;;;;;2.72;0.40;;;21.40;99.90;;;;;;5125831;27;20565;-69
2022/10/16 12:35:30;;;;;;;0.65;0.30;;;21.50;99.90;;;;;;5113278;27;20905;-69
2022/10/16 12:38:09;;;;;;;2.75;1.00;;;21.40;99.90;;;;;;5107672;28;20213;-69
2022/10/16 12:40:38;;;;;;;0.93;0.40;;;21.40;99.90;;;;;;5129081;27;20197;-69
2022/10/16 12:43:27;;;;;;;0.63;0.52;;;21.50;99.90;;;;;;5129896;27;20734;-69
2022/10/16 12:46:02;;;;;;;0.43;0.43;;;21.60;99.90;;;;;;5129614;27;20253;-67
2022/10/16 12:48:29;;;;;;;3.97;0.47;;;21.60;99.90;;;;;;5129706;27;20189;-67
2022/10/16 12:50:56;;;;;;;1.35;0.63;;;21.70;99.90;;;;;;5129493;27;20201;-67
2022/10/16 12:53:27;;;;;;;2.40;0.77;;;21.70;99.90;;;;;;5129451;27;20213;-67
2022/10/16 12:56:04;;;;;;;1.40;0.40;;;21.70;99.90;;;;;;5115331;27;20847;-67
2022/10/16 12:58:58;;;;;;;0.70;0.70;;;21.60;99.90;;;;;;5108847;28;20199;-67
2022/10/16 13:01:37;;;;;;;3.22;0.50;;;21.40;99.90;;;;;;5122323;27;20225;-68